Jordan, MT

11:58 AM MDT on August 24, 2016 (GMT -0600)
Wokal-Glasgow International | | Change Station
Active Advisory: Lake Wind Advisory

Elev 2293 ft 48.21 °N, 106.62 °W | Updated 5 minutes ago

Overcast
Overcast
57 °F
Feels Like 57 °F
N
25
Wind Variable Wind from NW

Today
High -- | Low -- °F
--% Chance of Precip.
Yesterday
High -- | Low -- °F
Precip. -- in
Pressure 30.17 in
Visibility 10.0 miles
Clouds Overcast 2400 ft
Dew Point 46 °F
Humidity 67%
Rainfall 0.00 in
Snow Depth Not available.
6:16 AM 8:02 PM
Waning Gibbous, 55% visible
METAR KGGW 241753Z AUTO 31022KT 10SM OVC024 14/08 A3016 RMK AO2 PK WND 29032/1716 SLP215 T01390078 10139 20122 51013
Pressure 30.17 in
Visibility 10.0 miles
Clouds Overcast 2400 ft
Dew Point 46 °F
Humidity 67%
Rainfall 0.00 in
Snow Depth Not available.
6:16 AM 8:02 PM
Waning Gibbous, 55% visible
METAR KGGW 241753Z AUTO 31022KT 10SM OVC024 14/08 A3016 RMK AO2 PK WND 29032/1716 SLP215 T01390078 10139 20122 51013

10-Day Weather Forecast

Almanac

Astronomy

Aug. 24, 2016 Rise Set
Actual Time
Civil Twilight
Nautical Twilight
Astronomical Twilight
Moon
Length of Visible Light
Length of Day
Tomorrow will be .
, % of the Moon is Illuminated

Today's Extremes

State Highs State Lows

Community

WunderPhotos

Upload Photos

1,934,661 photos uploaded!

WunderBlog® & News

Nearby

Air Quality

  Air Quality AQ Index Pollutant
Not available.

Snow Depth

Station Depth Elevation

Earthquake Activity

City Distance Mag. Time & Date
Minimum magnitude displayed is 2.5.

Coastal Water Temperatures

Place Temperature

Stations

Nearby Weather Stations

Station Location Temp. Windchill Dew Point Humidity Wind Precip. Elev Updated Type
                   

Watches & Warnings

Lake Wind Advisory
Issued: 2:47 AM MDT Aug. 24, 2016 – National Weather Service

... Lake Wind Advisory remains in effect until 9 PM MDT this
evening for Fort Peck Lake...

* winds... northwest 15 to 25 mph with gusts up to 30 mph.

* Timing... the gusty northwest winds will continue all day today
and diminish around sunset this evening.

* Impacts... these winds will make open waters of the lake rough
and hazardous... and may result in high waves which may tip or
swamp smaller craft.

Precautionary/preparedness actions...

Boaters should use extreme caution if venturing onto Fort Peck
Lake. For your personal safety... avoid the open waters. Stay
close to shore or around protected areas.